Time;durP1;ratioP1;P1;durP2;ratioP2;P2;SDS_P1;SDS_P2;PMS_P1;PMS_P2;Temp;Humidity;BMP_temperature;BMP_pressure;BME280_temperature;BME280_humidity;BME280_pressure;Samples;Min_cycle;Max_cycle;Signal;HPM_P1;HPM_P2
2022/09/08 00:02:17;;;;;;;18.93;14.13;;;;;;;;;;4989164;28;20085;-77
2022/09/08 00:04:43;;;;;;;19.57;13.73;;;;;;;;;;4990704;28;20264;-76
2022/09/08 00:07:08;;;;;;;17.23;13.43;;;;;;;;;;4990317;28;20271;-77
2022/09/08 00:09:34;;;;;;;17.05;13.80;;;;;;;;;;4990637;28;20515;-77
2022/09/08 00:12:01;;;;;;;17.63;14.52;;;;;;;;;;4990046;28;20029;-78
2022/09/08 00:14:28;;;;;;;21.85;14.82;;;;;;;;;;4990695;28;20029;-77
2022/09/08 00:16:53;;;;;;;21.90;13.45;;;;;;;;;;4990522;28;20080;-78
2022/09/08 00:19:18;;;;;;;19.00;14.27;;;;;;;;;;4990818;28;20058;-77
2022/09/08 00:21:43;;;;;;;16.90;13.38;;;;;;;;;;4994909;28;20034;-77
2022/09/08 00:24:09;;;;;;;18.83;13.83;;;;;;;;;;4993825;28;20391;-77
2022/09/08 00:26:34;;;;;;;18.33;13.80;;;;;;;;;;4993895;28;20622;-77
2022/09/08 00:28:59;;;;;;;17.03;13.57;;;;;;;;;;4993836;28;20304;-77
2022/09/08 00:31:25;;;;;;;20.65;14.63;;;;;;;;;;4994284;28;20260;-77
2022/09/08 00:33:50;;;;;;;17.23;13.68;;;;;;;;;;4994534;28;20576;-77
2022/09/08 00:36:16;;;;;;;21.50;13.33;;;;;;;;;;4993983;28;20073;-77
2022/09/08 00:38:50;;;;;;;17.02;13.27;;;;;;;;;;4994479;28;20276;-76
2022/09/08 00:41:17;;;;;;;20.17;14.32;;;;;;;;;;4993936;28;20369;-77
2022/09/08 00:43:45;;;;;;;20.33;13.73;;;;;;;;;;4994024;28;20500;-77
2022/09/08 00:46:14;;;;;;;19.27;13.52;;;;;;;;;;4993802;28;20113;-78
2022/09/08 00:48:52;;;;;;;23.55;13.68;;;;;;;;;;4993320;28;20377;-78
2022/09/08 00:51:18;;;;;;;18.17;13.38;;;;;;;;;;4993974;28;20109;-77
2022/09/08 00:53:45;;;;;;;19.23;13.13;;;;;;;;;;4993316;28;20735;-77
2022/09/08 00:56:11;;;;;;;18.50;13.98;;;;;;;;;;4992381;28;20026;-77
2022/09/08 00:58:37;;;;;;;17.73;13.50;;;;;;;;;;4993668;28;20030;-77
2022/09/08 01:01:04;;;;;;;19.70;14.48;;;;;;;;;;4992270;28;20479;-77
2022/09/08 01:03:31;;;;;;;17.73;13.13;;;;;;;;;;4992257;28;20033;-77
2022/09/08 01:06:08;;;;;;;14.77;12.80;;;;;;;;;;4992013;28;20037;-76
2022/09/08 01:14:42;;;;;;;23.30;13.77;;;;;;;;;;4993155;28;20037;-78
2022/09/08 01:17:34;;;;;;;23.77;13.68;;;;;;;;;;4993808;28;20026;-77
2022/09/08 01:20:02;;;;;;;17.58;13.15;;;;;;;;;;4991542;28;20040;-75
2022/09/08 01:22:44;;;;;;;18.42;13.63;;;;;;;;;;4993097;28;20031;-77
2022/09/08 01:26:01;;;;;;;15.85;13.20;;;;;;;;;;4993013;28;20570;-77
2022/09/08 01:28:37;;;;;;;19.95;13.95;;;;;;;;;;4993663;28;20035;-77
2022/09/08 01:31:04;;;;;;;18.20;13.30;;;;;;;;;;4992605;28;20033;-78
2022/09/08 01:33:29;;;;;;;17.88;13.30;;;;;;;;;;4992777;28;20022;-77
2022/09/08 01:35:55;;;;;;;18.77;14.35;;;;;;;;;;4991198;28;20049;-77
2022/09/08 01:38:20;;;;;;;20.35;13.70;;;;;;;;;;4993417;28;20033;-77
2022/09/08 01:40:45;;;;;;;18.00;14.30;;;;;;;;;;4997874;28;20112;-76
2022/09/08 01:43:11;;;;;;;18.87;13.63;;;;;;;;;;4995219;28;20268;-77
2022/09/08 01:45:37;;;;;;;19.60;14.20;;;;;;;;;;4997625;28;20252;-77
2022/09/08 01:48:04;;;;;;;16.38;12.90;;;;;;;;;;4997567;28;20872;-76
2022/09/08 01:50:29;;;;;;;17.45;13.02;;;;;;;;;;4996403;28;20022;-76
2022/09/08 01:52:54;;;;;;;17.03;12.97;;;;;;;;;;4996340;28;20033;-77
2022/09/08 01:55:20;;;;;;;15.93;12.88;;;;;;;;;;4995906;28;20339;-77
2022/09/08 01:57:55;;;;;;;16.77;12.80;;;;;;;;;;4995981;28;20026;-76
2022/09/08 02:00:20;;;;;;;17.63;13.13;;;;;;;;;;4979915;28;20039;-77
2022/09/08 02:02:45;;;;;;;15.95;12.43;;;;;;;;;;4997137;28;20388;-77
2022/09/08 02:05:11;;;;;;;15.53;12.50;;;;;;;;;;4995901;28;20096;-77
2022/09/08 02:07:37;;;;;;;17.88;12.63;;;;;;;;;;4995744;28;20260;-76
2022/09/08 02:10:04;;;;;;;16.77;12.80;;;;;;;;;;4996721;28;20026;-77
2022/09/08 02:12:30;;;;;;;16.35;12.60;;;;;;;;;;4998019;28;20022;-77
2022/09/08 02:14:56;;;;;;;16.00;12.82;;;;;;;;;;4996653;28;20033;-77
2022/09/08 02:17:21;;;;;;;17.27;12.43;;;;;;;;;;4995632;28;20022;-77
2022/09/08 02:19:47;;;;;;;18.13;12.45;;;;;;;;;;4995644;28;20037;-77
2022/09/08 02:22:12;;;;;;;15.80;11.80;;;;;;;;;;4994353;28;20062;-77
2022/09/08 02:24:37;;;;;;;17.05;12.48;;;;;;;;;;4996086;28;20029;-77
2022/09/08 02:27:03;;;;;;;18.25;12.57;;;;;;;;;;4995170;28;20177;-76
2022/09/08 02:29:28;;;;;;;18.55;12.68;;;;;;;;;;4994460;28;20048;-77
2022/09/08 02:31:54;;;;;;;16.55;12.70;;;;;;;;;;4997144;28;20101;-77
2022/09/08 02:34:19;;;;;;;18.75;12.38;;;;;;;;;;4994071;28;20049;-77
2022/09/08 02:36:44;;;;;;;16.02;11.98;;;;;;;;;;4995353;28;20077;-77
2022/09/08 02:39:18;;;;;;;21.87;12.83;;;;;;;;;;4996079;28;20034;-77
2022/09/08 02:41:43;;;;;;;17.40;12.27;;;;;;;;;;4993749;28;20283;-75
2022/09/08 02:44:11;;;;;;;15.63;12.57;;;;;;;;;;4994200;28;20026;-77
2022/09/08 02:46:37;;;;;;;15.50;12.32;;;;;;;;;;4994712;28;20299;-77
2022/09/08 02:49:02;;;;;;;14.77;11.93;;;;;;;;;;4995046;28;20388;-76
2022/09/08 02:51:27;;;;;;;18.03;12.33;;;;;;;;;;4994961;28;20337;-77
2022/09/08 02:53:55;;;;;;;15.27;12.90;;;;;;;;;;4994387;28;20636;-77
2022/09/08 02:56:20;;;;;;;16.38;12.18;;;;;;;;;;4992960;28;20268;-77
2022/09/08 02:58:45;;;;;;;19.85;12.52;;;;;;;;;;4994393;28;20571;-77
2022/09/08 03:01:10;;;;;;;16.30;11.93;;;;;;;;;;4993127;28;20065;-76
2022/09/08 03:03:35;;;;;;;17.70;12.97;;;;;;;;;;4994366;28;20260;-76
2022/09/08 03:06:01;;;;;;;16.87;12.50;;;;;;;;;;4994769;28;20318;-76
2022/09/08 03:08:26;;;;;;;23.02;12.80;;;;;;;;;;4994351;28;20264;-76
2022/09/08 03:10:52;;;;;;;18.38;12.43;;;;;;;;;;4994684;28;20021;-77
2022/09/08 03:13:18;;;;;;;15.07;12.60;;;;;;;;;;4995543;28;20037;-76
2022/09/08 03:15:43;;;;;;;15.77;12.60;;;;;;;;;;4994506;28;20042;-76
2022/09/08 03:18:08;;;;;;;16.15;13.05;;;;;;;;;;4994319;28;20027;-76
2022/09/08 03:20:36;;;;;;;15.32;12.13;;;;;;;;;;4994170;28;20109;-76
2022/09/08 03:23:02;;;;;;;18.27;12.95;;;;;;;;;;4992774;28;20074;-76
2022/09/08 03:25:28;;;;;;;15.27;11.90;;;;;;;;;;4994507;28;20424;-76
2022/09/08 03:27:53;;;;;;;20.30;12.35;;;;;;;;;;4994263;28;20128;-77
2022/09/08 03:30:19;;;;;;;18.23;12.65;;;;;;;;;;4994086;28;20431;-76
2022/09/08 03:32:46;;;;;;;14.60;12.43;;;;;;;;;;4992519;28;20030;-76
2022/09/08 03:35:14;;;;;;;14.20;12.30;;;;;;;;;;4994711;28;20034;-77
2022/09/08 03:37:40;;;;;;;17.55;13.13;;;;;;;;;;4993598;28;20571;-76
2022/09/08 03:40:08;;;;;;;17.80;11.73;;;;;;;;;;4993626;28;20144;-75
2022/09/08 03:42:35;;;;;;;16.95;12.50;;;;;;;;;;4993695;28;20460;-76
2022/09/08 03:45:05;;;;;;;16.35;12.85;;;;;;;;;;4993973;28;20026;-77
2022/09/08 03:47:31;;;;;;;17.13;13.50;;;;;;;;;;4993899;28;20030;-76
2022/09/08 03:49:58;;;;;;;18.55;13.10;;;;;;;;;;4995372;28;20030;-77
2022/09/08 03:52:23;;;;;;;17.77;13.18;;;;;;;;;;4993702;28;20052;-77
2022/09/08 03:54:50;;;;;;;17.50;12.95;;;;;;;;;;4993454;28;20475;-77
2022/09/08 03:57:21;;;;;;;16.73;13.35;;;;;;;;;;4992542;28;20100;-77
2022/09/08 03:59:48;;;;;;;19.42;12.93;;;;;;;;;;4995126;28;20057;-77
2022/09/08 04:02:14;;;;;;;17.98;12.85;;;;;;;;;;4993585;28;20034;-76
2022/09/08 04:04:39;;;;;;;19.48;12.45;;;;;;;;;;4992348;28;20038;-77
2022/09/08 04:07:05;;;;;;;14.60;12.02;;;;;;;;;;4993342;28;20106;-76
2022/09/08 04:09:30;;;;;;;16.92;12.15;;;;;;;;;;4992328;28;20488;-76
2022/09/08 04:11:55;;;;;;;13.95;11.90;;;;;;;;;;4993991;28;20105;-76
2022/09/08 04:14:21;;;;;;;14.60;11.77;;;;;;;;;;4993525;28;20022;-76
2022/09/08 04:16:46;;;;;;;16.15;11.23;;;;;;;;;;4994207;28;20311;-77
2022/09/08 04:19:12;;;;;;;15.48;11.32;;;;;;;;;;4993913;28;20022;-77
2022/09/08 04:21:38;;;;;;;13.27;10.50;;;;;;;;;;4993416;28;20500;-77
2022/09/08 04:24:03;;;;;;;17.48;11.77;;;;;;;;;;4993951;28;20046;-75
2022/09/08 04:26:29;;;;;;;15.48;11.13;;;;;;;;;;4993671;28;20407;-77
2022/09/08 04:28:54;;;;;;;15.65;11.68;;;;;;;;;;4992064;28;20030;-77
2022/09/08 04:31:20;;;;;;;13.07;10.23;;;;;;;;;;4992993;28;20030;-77
2022/09/08 04:33:46;;;;;;;15.32;10.60;;;;;;;;;;4993052;28;20255;-76
2022/09/08 04:36:15;;;;;;;13.68;9.93;;;;;;;;;;4993065;28;20031;-76
2022/09/08 04:38:41;;;;;;;14.07;10.13;;;;;;;;;;4993628;28;20053;-77
2022/09/08 04:41:10;;;;;;;12.27;8.82;;;;;;;;;;4993913;28;20022;-77
2022/09/08 04:43:36;;;;;;;11.32;7.70;;;;;;;;;;4993850;28;20113;-76
2022/09/08 04:46:03;;;;;;;10.60;6.90;;;;;;;;;;4992201;28;20030;-77
2022/09/08 04:48:30;;;;;;;11.25;7.45;;;;;;;;;;4993320;28;20022;-76
2022/09/08 04:50:55;;;;;;;8.77;6.22;;;;;;;;;;4993171;28;20398;-76
2022/09/08 04:53:22;;;;;;;6.95;5.57;;;;;;;;;;4993047;28;20030;-77
2022/09/08 04:55:50;;;;;;;8.18;6.00;;;;;;;;;;4993271;28;20026;-77
2022/09/08 04:58:15;;;;;;;11.73;5.90;;;;;;;;;;4993406;28;20027;-76
2022/09/08 05:00:41;;;;;;;7.17;6.00;;;;;;;;;;4993273;28;20100;-76
2022/09/08 05:03:06;;;;;;;12.35;5.43;;;;;;;;;;4992899;28;20323;-77
2022/09/08 05:05:35;;;;;;;7.03;5.90;;;;;;;;;;4993036;28;20034;-76
2022/09/08 05:08:00;;;;;;;18.00;6.00;;;;;;;;;;4996238;28;20291;-77
2022/09/08 05:10:27;;;;;;;9.38;6.00;;;;;;;;;;4979421;28;20026;-77
2022/09/08 05:12:53;;;;;;;8.95;6.05;;;;;;;;;;4997456;28;20037;-78
2022/09/08 05:15:19;;;;;;;10.45;5.75;;;;;;;;;;4996536;28;20033;-75
2022/09/08 05:17:44;;;;;;;7.53;5.70;;;;;;;;;;4996786;28;20030;-76
2022/09/08 05:20:10;;;;;;;8.87;5.73;;;;;;;;;;4996895;28;20368;-76
2022/09/08 05:22:35;;;;;;;9.02;5.78;;;;;;;;;;4996376;28;20769;-77
2022/09/08 05:25:01;;;;;;;9.40;6.10;;;;;;;;;;4996540;28;20369;-76
2022/09/08 05:27:26;;;;;;;8.23;6.30;;;;;;;;;;4995268;28;20809;-78
2022/09/08 05:29:51;;;;;;;9.27;5.70;;;;;;;;;;4996320;28;20025;-76
2022/09/08 05:32:16;;;;;;;8.83;6.17;;;;;;;;;;4996057;28;20256;-76
2022/09/08 05:34:41;;;;;;;9.38;6.30;;;;;;;;;;4996500;28;20257;-76
2022/09/08 05:37:07;;;;;;;8.87;6.23;;;;;;;;;;4996657;28;20027;-76
2022/09/08 05:39:32;;;;;;;9.55;6.10;;;;;;;;;;4994763;28;20367;-76
2022/09/08 05:41:57;;;;;;;7.75;6.20;;;;;;;;;;4995676;28;20022;-76
2022/09/08 05:44:23;;;;;;;9.17;6.03;;;;;;;;;;4997713;28;20050;-77
2022/09/08 05:46:48;;;;;;;7.70;5.73;;;;;;;;;;4994875;28;20302;-76
2022/09/08 05:49:14;;;;;;;8.38;6.32;;;;;;;;;;4995159;28;20338;-76
2022/09/08 05:51:39;;;;;;;9.30;6.17;;;;;;;;;;4996076;28;20026;-75
2022/09/08 05:54:04;;;;;;;8.10;5.73;;;;;;;;;;4996023;28;20263;-76
2022/09/08 05:56:30;;;;;;;7.57;6.25;;;;;;;;;;4995746;28;20260;-76
2022/09/08 05:58:59;;;;;;;7.05;5.53;;;;;;;;;;4994574;28;20068;-76
2022/09/08 06:01:28;;;;;;;6.97;5.60;;;;;;;;;;4994437;28;20037;-76
2022/09/08 06:03:53;;;;;;;8.38;6.07;;;;;;;;;;4996322;28;20022;-76
2022/09/08 06:06:19;;;;;;;11.32;6.32;;;;;;;;;;4995780;28;20077;-76
2022/09/08 06:08:44;;;;;;;7.68;5.95;;;;;;;;;;4995827;28;20037;-76
2022/09/08 06:11:10;;;;;;;7.50;5.72;;;;;;;;;;4995387;28;20026;-76
2022/09/08 06:13:36;;;;;;;11.70;6.50;;;;;;;;;;4994249;28;20561;-77
2022/09/08 06:16:13;;;;;;;9.00;5.90;;;;;;;;;;4995531;28;20511;-76
2022/09/08 06:18:41;;;;;;;12.60;6.13;;;;;;;;;;4995446;28;20037;-76
2022/09/08 06:21:08;;;;;;;7.82;6.00;;;;;;;;;;4994402;28;20023;-75
2022/09/08 06:23:34;;;;;;;8.10;6.25;;;;;;;;;;4995352;28;20031;-76
2022/09/08 06:26:21;;;;;;;8.95;6.40;;;;;;;;;;4995232;28;20113;-76
2022/09/08 06:29:10;;;;;;;11.38;5.72;;;;;;;;;;4994008;28;20030;-76
2022/09/08 06:31:41;;;;;;;9.38;5.97;;;;;;;;;;4994044;28;20109;-77
2022/09/08 06:34:15;;;;;;;10.60;6.40;;;;;;;;;;4995627;28;20030;-76
2022/09/08 06:36:49;;;;;;;12.18;6.68;;;;;;;;;;4995459;28;20034;-76
2022/09/08 06:39:23;;;;;;;9.32;6.78;;;;;;;;;;4995426;28;20026;-76
2022/09/08 06:41:54;;;;;;;11.15;6.05;;;;;;;;;;4995393;28;20038;-77
2022/09/08 06:44:26;;;;;;;9.73;6.30;;;;;;;;;;4995222;28;20057;-76
2022/09/08 06:46:52;;;;;;;12.25;6.40;;;;;;;;;;4995085;28;20022;-77
2022/09/08 06:49:17;;;;;;;12.13;6.80;;;;;;;;;;4993795;28;20022;-76
2022/09/08 06:52:00;;;;;;;8.20;6.73;;;;;;;;;;4994771;28;20731;-76
2022/09/08 06:54:49;;;;;;;11.43;6.68;;;;;;;;;;4995296;28;20303;-76
2022/09/08 06:57:24;;;;;;;9.98;6.50;;;;;;;;;;4993438;28;20034;-75
2022/09/08 07:00:28;;;;;;;13.90;6.25;;;;;;;;;;4995356;28;20053;-75
2022/09/08 07:03:14;;;;;;;11.18;7.13;;;;;;;;;;4993619;28;20451;-76
2022/09/08 07:06:01;;;;;;;13.73;6.10;;;;;;;;;;4994809;28;20037;-75
2022/09/08 07:08:29;;;;;;;10.43;6.50;;;;;;;;;;4994721;28;20034;-76
2022/09/08 07:10:59;;;;;;;11.20;6.07;;;;;;;;;;4994605;28;20591;-76
2022/09/08 07:13:33;;;;;;;13.07;6.93;;;;;;;;;;4994842;28;20114;-76
2022/09/08 07:16:22;;;;;;;8.93;6.45;;;;;;;;;;4994659;28;20507;-76
2022/09/08 07:18:52;;;;;;;13.75;6.78;;;;;;;;;;4994794;28;20045;-75
2022/09/08 07:21:43;;;;;;;9.70;6.10;;;;;;;;;;5001127;28;20026;-75
2022/09/08 07:24:13;;;;;;;11.13;6.80;;;;;;;;;;5001325;28;20081;-75
2022/09/08 07:26:47;;;;;;;8.18;6.35;;;;;;;;;;5001833;28;20498;-76
2022/09/08 07:29:20;;;;;;;9.82;6.57;;;;;;;;;;5003613;28;20479;-76
2022/09/08 07:31:49;;;;;;;10.38;6.57;;;;;;;;;;5004116;28;20022;-75
2022/09/08 07:34:26;;;;;;;10.98;6.45;;;;;;;;;;5001757;28;20030;-76
2022/09/08 07:37:14;;;;;;;8.70;6.85;;;;;;;;;;5002148;28;20034;-76
2022/09/08 07:39:48;;;;;;;9.85;6.63;;;;;;;;;;5001741;28;20035;-75
2022/09/08 07:42:15;;;;;;;12.45;6.97;;;;;;;;;;5001981;28;20022;-76
2022/09/08 07:44:40;;;;;;;9.82;7.32;;;;;;;;;;5002011;28;20026;-76
2022/09/08 07:47:50;;;;;;;8.77;6.85;;;;;;;;;;5002813;28;20069;-76
2022/09/08 07:53:53;;;;;;;8.68;7.03;;;;;;;;;;5002327;28;20033;-76
2022/09/08 07:56:24;;;;;;;12.85;7.45;;;;;;;;;;5006752;28;20045;-76
2022/09/08 07:59:14;;;;;;;8.13;7.00;;;;;;;;;;5000193;28;20034;-74
2022/09/08 08:02:01;;;;;;;16.45;7.47;;;;;;;;;;4994058;28;20032;-75
2022/09/08 08:04:40;;;;;;;11.63;7.18;;;;;;;;;;4994119;28;20514;-76
2022/09/08 08:07:12;;;;;;;14.93;7.50;;;;;;;;;;4994057;28;20057;-76
2022/09/08 08:09:47;;;;;;;10.52;7.40;;;;;;;;;;4993607;28;20454;-75
2022/09/08 08:12:34;;;;;;;14.52;7.47;;;;;;;;;;4993675;28;20484;-76
2022/09/08 08:15:06;;;;;;;10.07;7.53;;;;;;;;;;4993935;28;20033;-76
2022/09/08 08:17:47;;;;;;;11.30;7.50;;;;;;;;;;4993692;28;20026;-76
2022/09/08 08:20:30;;;;;;;9.90;6.82;;;;;;;;;;4993963;28;20023;-76
2022/09/08 08:23:10;;;;;;;10.60;8.27;;;;;;;;;;4993814;28;20042;-76
2022/09/08 08:26:05;;;;;;;12.27;7.93;;;;;;;;;;4993422;28;20621;-76
2022/09/08 08:28:38;;;;;;;;;;;;;;;;;;4994528;28;20029;-76
2022/09/08 08:31:37;;;;;;;11.70;7.82;;;;;;;;;;4993745;28;19919;-77
2022/09/08 08:34:10;;;;;;;11.82;7.95;;;;;;;;;;4996155;28;20018;-77
2022/09/08 08:36:41;;;;;;;10.32;8.20;;;;;;;;;;4994066;28;20476;-77
2022/09/08 08:39:21;;;;;;;10.57;8.07;;;;;;;;;;4992367;28;20073;-78
2022/09/08 08:41:46;;;;;;;14.52;8.52;;;;;;;;;;4993693;28;20022;-77
2022/09/08 08:44:35;;;;;;;14.27;9.17;;;;;;;;;;4995964;28;20037;-77
2022/09/08 08:47:23;;;;;;;13.85;9.75;;;;;;;;;;4997390;28;20507;-78
2022/09/08 08:50:26;;;;;;;15.15;9.93;;;;;;;;;;4998503;28;20026;-78
2022/09/08 08:53:25;;;;;;;15.30;9.82;;;;;;;;;;4998217;28;20034;-78
2022/09/08 08:56:07;;;;;;;15.50;10.95;;;;;;;;;;4996719;28;20072;-77
2022/09/08 08:59:00;;;;;;;22.95;10.00;;;;;;;;;;4997483;28;20018;-77
2022/09/08 09:01:40;;;;;;;14.80;10.15;;;;;;;;;;4996818;28;20458;-76
2022/09/08 09:04:24;;;;;;;13.93;10.60;;;;;;;;;;4996212;28;20022;-77
2022/09/08 09:10:03;;;;;;;15.90;12.18;;;;;;;;;;4957161;28;20043;-77
2022/09/08 09:13:35;;;;;;;47.95;13.00;;;;;;;;;;4956836;28;20039;-77
2022/09/08 09:16:33;;;;;;;12.10;9.23;;;;;;;;;;4957671;28;20082;-77
2022/09/08 09:26:35;;;;;;;16.98;11.48;;;;;;;;;;4957469;28;20031;-78
2022/09/08 09:29:41;;;;;;;10.80;8.60;;;;;;;;;;4958270;28;20031;-77
2022/09/08 09:32:46;;;;;;;13.73;8.25;;;;;;;;;;4967565;28;20035;-77
2022/09/08 09:35:17;;;;;;;;;;;;;;;;;;4973075;28;20215;-77
2022/09/08 09:38:36;;;;;;;9.80;6.40;;;;;;;;;;4958041;28;20350;-77
2022/09/08 09:41:50;;;;;;;15.45;6.53;;;;;;;;;;4958971;28;20611;-77
2022/09/08 09:48:25;;;;;;;74.68;5.68;;;;;;;;;;4993988;28;20125;-77
2022/09/08 09:51:04;;;;;;;7.15;4.35;;;;;;;;;;4957317;28;20023;-76
2022/09/08 09:53:38;;;;;;;9.05;4.95;;;;;;;;;;4957260;28;20023;-76
2022/09/08 09:56:32;;;;;;;8.88;4.68;;;;;;;;;;4957218;28;20030;-75
2022/09/08 09:59:11;;;;;;;13.57;4.20;;;;;;;;;;4957720;28;20047;-75
2022/09/08 10:01:57;;;;;;;18.15;4.35;;;;;;;;;;4956938;28;20027;-76
2022/09/08 10:05:05;;;;;;;11.50;3.92;;;;;;;;;;4957186;28;20035;-76
2022/09/08 10:24:15;;;;;;;;;;;;;;;;;;;;;
2022/09/08 10:28:06;;;;;;;8.60;4.70;;;;;;;;;;4836339;29;20097;-76
2022/09/08 10:38:19;;;;;;;9.60;4.13;;;;;;;;;;4769254;30;20078;-77
2022/09/08 10:41:58;;;;;;;;;;;;;;;;;;;;;
2022/09/08 10:45:01;;;;;;;8.15;4.65;;;;;;;;;;4751204;30;20074;-76
2022/09/08 10:48:12;;;;;;;11.30;4.93;;;;;;;;;;4767873;29;20565;-76
2022/09/08 10:51:46;;;;;;;9.88;4.82;;;;;;;;;;4935821;28;20074;-76
2022/09/08 10:54:59;;;;;;;;;;;;;;;;;;;;;
2022/09/08 10:57:50;;;;;;;120.40;6.55;;;;;;;;;;4961757;28;20031;-76
2022/09/08 11:00:19;;;;;;;23.02;5.97;;;;;;;;;;4956197;28;20102;-76
2022/09/08 11:03:22;;;;;;;11.57;6.10;;;;;;;;;;4955816;28;20378;-76
2022/09/08 11:05:58;;;;;;;12.38;6.13;;;;;;;;;;4954843;28;20381;-76
2022/09/08 11:08:54;;;;;;;13.07;6.85;;;;;;;;;;4955988;28;20027;-77
2022/09/08 11:11:38;;;;;;;13.65;6.47;;;;;;;;;;4955699;28;20038;-76
2022/09/08 11:14:42;;;;;;;12.75;6.53;;;;;;;;;;4955539;28;20023;-75
2022/09/08 11:17:35;;;;;;;13.50;7.30;;;;;;;;;;4954741;28;20038;-77
2022/09/08 11:20:09;;;;;;;14.05;7.63;;;;;;;;;;4955880;28;20039;-76
2022/09/08 11:22:45;;;;;;;16.40;7.45;;;;;;;;;;4955638;28;20039;-75
2022/09/08 11:25:49;;;;;;;15.07;7.82;;;;;;;;;;4970212;28;20078;-76
2022/09/08 11:28:18;;;;;;;16.27;6.88;;;;;;;;;;4956346;28;20031;-76
2022/09/08 11:31:32;;;;;;;16.20;8.05;;;;;;;;;;4972625;28;20026;-76
2022/09/08 11:34:03;;;;;;;14.40;7.88;;;;;;;;;;4930442;28;20113;-76
2022/09/08 11:36:37;;;;;;;13.93;7.18;;;;;;;;;;4955229;28;20385;-76
2022/09/08 11:39:32;;;;;;;16.20;7.95;;;;;;;;;;4955564;28;20031;-77
2022/09/08 11:42:18;;;;;;;16.98;7.57;;;;;;;;;;4955364;28;20030;-76
2022/09/08 11:44:55;;;;;;;16.48;8.02;;;;;;;;;;4955220;28;20401;-75
2022/09/08 11:47:34;;;;;;;23.85;9.25;;;;;;;;;;4953772;28;20042;-76
2022/09/08 11:50:28;;;;;;;24.75;10.50;;;;;;;;;;4955222;28;20166;-76
2022/09/08 11:53:21;;;;;;;;;;;;;;;;;;4956077;28;20385;-76
2022/09/08 11:56:20;;;;;;;19.63;10.43;;;;;;;;;;4955140;28;19911;-76
2022/09/08 11:59:16;;;;;;;13.27;6.53;;;;;;;;;;4969917;28;20069;-77
2022/09/08 12:01:55;;;;;;;13.65;6.55;;;;;;;;;;4955070;28;20031;-75
2022/09/08 12:04:59;;;;;;;12.93;5.80;;;;;;;;;;4970153;28;20053;-76
2022/09/08 12:15:56;;;;;;;6.65;3.42;;;;;;;;;;3154578;26;20103;-76
2022/09/08 12:19:11;;;;;;;;;;;;;;;;;;;;;
2022/09/08 12:39:47;;;;;;;;;;;;;;;;;;;;;
2022/09/08 12:59:00;;;;;;;4.30;2.85;;;;;;;;;;4956760;29;20047;-76
2022/09/08 13:02:30;;;;;;;4.22;3.03;;;;;;;;;;4920627;28;20036;-77
2022/09/08 14:08:22;;;;;;;1.67;1.50;;;;;;;;;;5090767;22;20050;-76
2022/09/08 14:18:27;;;;;;;2.25;1.20;;;;;;;;;;4998528;28;20077;-77
2022/09/08 14:25:57;;;;;;;1.48;1.10;;;;;;;;;;4973828;28;20034;-77
2022/09/08 14:43:35;;;;;;;1.17;1.00;;;;;;;;;;4924867;29;20067;-77
2022/09/08 14:53:54;;;;;;;;;;;;;;;;;;;;;
2022/09/08 14:57:07;;;;;;;2.85;0.90;;;;;;;;;;4996209;28;20038;-76
2022/09/08 15:00:05;;;;;;;1.00;0.90;;;;;;;;;;5014296;28;20025;-77
2022/09/08 15:02:49;;;;;;;0.82;0.82;;;;;;;;;;5014328;28;20120;-76
2022/09/08 15:05:42;;;;;;;1.00;0.70;;;;;;;;;;5014955;28;20391;-76
2022/09/08 15:08:26;;;;;;;1.38;0.90;;;;;;;;;;5011933;28;20068;-75
2022/09/08 15:11:08;;;;;;;0.60;0.60;;;;;;;;;;5014273;28;20029;-76
2022/09/08 15:14:39;;;;;;;0.80;0.80;;;;;;;;;;5014262;28;20057;-76
2022/09/08 15:21:05;;;;;;;2.45;0.88;;;;;;;;;;4933289;28;20033;-77
2022/09/08 15:23:38;;;;;;;1.83;1.00;;;;;;;;;;5014157;28;20114;-77
2022/09/08 15:26:08;;;;;;;0.93;0.90;;;;;;;;;;5014345;28;20062;-75
2022/09/08 15:28:46;;;;;;;1.30;0.90;;;;;;;;;;5012701;28;20692;-76
2022/09/08 15:32:06;;;;;;;1.38;0.80;;;;;;;;;;5013119;28;20026;-76
2022/09/08 15:34:44;;;;;;;3.83;0.80;;;;;;;;;;4984199;28;20042;-76
2022/09/08 15:38:13;;;;;;;1.23;0.70;;;;;;;;;;5013575;28;20064;-75
2022/09/08 15:40:52;;;;;;;1.65;0.95;;;;;;;;;;4951177;28;20058;-76
2022/09/08 15:43:42;;;;;;;2.50;0.90;;;;;;;;;;5013942;28;20045;-77
2022/09/08 15:46:15;;;;;;;2.35;0.80;;;;;;;;;;5014126;28;20471;-75
2022/09/08 15:49:00;;;;;;;0.77;0.70;;;;;;;;;;5013685;28;20400;-77
2022/09/08 15:51:30;;;;;;;0.60;0.60;;;;;;;;;;5012890;28;20026;-76
2022/09/08 15:54:51;;;;;;;0.63;0.60;;;;;;;;;;5012685;28;20026;-77
2022/09/08 15:57:38;;;;;;;0.68;0.68;;;;;;;;;;5012361;28;20037;-76
2022/09/08 16:00:21;;;;;;;1.15;0.68;;;;;;;;;;5013524;28;20443;-77
2022/09/08 16:02:55;;;;;;;2.85;0.65;;;;;;;;;;5013664;28;20116;-76
2022/09/08 16:05:47;;;;;;;1.00;0.63;;;;;;;;;;5013381;28;20058;-77
2022/09/08 16:08:46;;;;;;;2.15;0.50;;;;;;;;;;5013095;28;20033;-76
2022/09/08 16:11:37;;;;;;;2.90;0.60;;;;;;;;;;5014117;28;20415;-77
2022/09/08 16:14:26;;;;;;;0.70;0.70;;;;;;;;;;5013527;28;20032;-76
2022/09/08 16:17:07;;;;;;;1.15;0.60;;;;;;;;;;5013225;28;20026;-76
2022/09/08 16:19:36;;;;;;;1.70;0.70;;;;;;;;;;5013105;28;20025;-77
2022/09/08 16:22:26;;;;;;;1.02;0.60;;;;;;;;;;5013529;28;20105;-77
2022/09/08 16:24:57;;;;;;;0.73;0.50;;;;;;;;;;5011998;28;20140;-76
2022/09/08 16:27:39;;;;;;;2.28;0.60;;;;;;;;;;5012716;28;20029;-76
2022/09/08 16:30:08;;;;;;;0.70;0.50;;;;;;;;;;5013800;28;20018;-76
2022/09/08 16:32:34;;;;;;;1.48;0.50;;;;;;;;;;5013002;28;20026;-76
2022/09/08 16:35:08;;;;;;;0.70;0.60;;;;;;;;;;5013002;28;20110;-77
2022/09/08 16:40:57;;;;;;;;;;;;;;;;;;;;;
2022/09/08 16:44:10;;;;;;;0.82;0.60;;;;;;;;;;4972977;28;20043;-77
2022/09/08 16:46:38;;;;;;;0.75;0.55;;;;;;;;;;5089250;22;20116;-77
2022/09/08 16:49:16;;;;;;;0.98;0.50;;;;;;;;;;5009810;28;20026;-77
2022/09/08 16:52:02;;;;;;;0.60;0.60;;;;;;;;;;5009588;28;20021;-77
2022/09/08 16:55:00;;;;;;;0.70;0.68;;;;;;;;;;5010388;28;20079;-77
2022/09/08 16:58:05;;;;;;;2.65;0.80;;;;;;;;;;5008140;28;20022;-76
2022/09/08 17:00:51;;;;;;;0.80;0.70;;;;;;;;;;5008174;28;20030;-78
2022/09/08 17:03:19;;;;;;;3.67;1.42;;;;;;;;;;5010073;28;20044;-78
2022/09/08 17:12:51;;;;;;;0.88;0.70;;;;;;;;;;5011571;28;20125;-78
2022/09/08 18:03:42;;;;;;;;;;;;;;;;;;;;;
2022/09/08 18:37:23;;;;;;;5.10;1.90;;;;;;;;;;4990696;28;20531;-78
2022/09/08 18:40:11;;;;;;;2.28;1.88;;;;;;;;;;4992090;28;20038;-78
2022/09/08 18:42:57;;;;;;;7.05;1.90;;;;;;;;;;4991692;28;20377;-77
2022/09/08 18:45:37;;;;;;;3.10;1.83;;;;;;;;;;4992159;28;20034;-76
2022/09/08 18:55:52;;;;;;;2.35;1.60;;;;;;;;;;5024704;23;20061;-76
2022/09/08 18:58:49;;;;;;;3.90;2.05;;;;;;;;;;5030844;28;20026;-78
2022/09/08 19:01:25;;;;;;;2.28;1.65;;;;;;;;;;5031014;28;20037;-78
2022/09/08 19:04:00;;;;;;;5.80;1.80;;;;;;;;;;5030580;28;20037;-78
2022/09/08 19:20:19;;;;;;;;;;;;;;;;;;;;;
2022/09/08 19:23:25;;;;;;;3.13;1.80;;;;;;;;;;4953022;28;20034;-77
2022/09/08 19:26:21;;;;;;;3.78;1.70;;;;;;;;;;4967601;28;20034;-77
2022/09/08 19:29:51;;;;;;;;;;;;;;;;;;;;;
2022/09/08 19:33:14;;;;;;;3.95;1.90;;;;;;;;;;4961090;28;20039;-78
2022/09/08 20:01:37;;;;;;;;;;;;;;;;;;;;;
2022/09/08 20:08:01;;;;;;;1.95;1.40;;;;;;;;;;4961360;28;20089;-77
2022/09/08 20:25:39;;;;;;;;;;;;;;;;;;;;;
2022/09/08 20:36:10;;;;;;;4.30;1.40;;;;;;;;;;4988012;28;20523;-79
2022/09/08 20:39:13;;;;;;;4.05;1.20;;;;;;;;;;4995327;28;20057;-78
2022/09/08 20:41:40;;;;;;;2.55;1.20;;;;;;;;;;4995159;28;20118;-77
2022/09/08 20:44:24;;;;;;;1.58;1.38;;;;;;;;;;4994784;28;20554;-76
2022/09/08 20:46:52;;;;;;;3.30;1.30;;;;;;;;;;4997668;28;20037;-77
2022/09/08 20:49:20;;;;;;;1.30;1.17;;;;;;;;;;4997070;28;20023;-76
2022/09/08 20:52:08;;;;;;;4.72;1.45;;;;;;;;;;4997923;28;20027;-78
2022/09/08 20:54:46;;;;;;;3.55;1.30;;;;;;;;;;4996286;28;20037;-77
2022/09/08 20:57:40;;;;;;;3.13;2.08;;;;;;;;;;5016812;22;20062;-77
2022/09/08 21:00:17;;;;;;;3.55;1.48;;;;;;;;;;4995954;28;20081;-76
2022/09/08 21:03:16;;;;;;;1.50;1.40;;;;;;;;;;4997301;28;20034;-77
2022/09/08 21:10:12;;;;;;;2.75;1.20;;;;;;;;;;4977355;28;20038;-76
2022/09/08 21:13:19;;;;;;;;;;;;;;;;;;;;;
2022/09/08 21:16:08;;;;;;;2.38;1.55;;;;;;;;;;4975466;28;20050;-76
2022/09/08 21:19:15;;;;;;;1.67;1.30;;;;;;;;;;4975941;28;20101;-76
2022/09/08 21:21:49;;;;;;;4.53;1.40;;;;;;;;;;4975024;28;20031;-76
2022/09/08 21:25:10;;;;;;;;;;;;;;;;;;;;;
2022/09/08 21:34:30;;;;;;;;;;;;;;;;;;;;;
2022/09/08 21:45:02;;;;;;;;;;;;;;;;;;;;;
2022/09/08 21:48:07;;;;;;;6.63;1.63;;;;;;;;;;4925697;28;20038;-77
2022/09/08 21:51:21;;;;;;;2.33;1.38;;;;;;;;;;4955045;28;20039;-77
2022/09/08 21:54:45;;;;;;;2.45;1.30;;;;;;;;;;4976450;28;20105;-77
2022/09/08 21:57:32;;;;;;;6.40;1.50;;;;;;;;;;4976742;28;20064;-76
2022/09/08 22:00:06;;;;;;;1.40;1.30;;;;;;;;;;4977182;28;20106;-77
2022/09/08 22:02:48;;;;;;;4.80;1.40;;;;;;;;;;4976377;28;20037;-77
2022/09/08 22:06:02;;;;;;;5.22;1.45;;;;;;;;;;4991331;28;20121;-77
2022/09/08 22:08:41;;;;;;;2.45;1.30;;;;;;;;;;4976305;28;20383;-77
2022/09/08 22:11:12;;;;;;;2.50;1.33;;;;;;;;;;4976327;28;20026;-77